• Join FlightAware (Why Join?)
  • Login
  • US Flag 
03:29AM EST


 

Airport Tracker/Info


-or-


 

Live Flight TrackerFlight Track Log ✈ N2876Q ✈ 09-Mar-2013 ✈ KFYE - KBNA

Flight Track Log - Related Links

Times and Time Zones

All times are in EST time to prevent confusion due to time zone crossing. See the N2876Q flight status page for this flight to view local times or setup timezone preferences in your user account.

Time Position Orientation Groundspeed Altitude Reporting Facility
EST Latitude Longitude Course Direction KTS MPH feet Rate Location/Type
09:21AM 35.2833 -89.1833 79° East 113 130 3,400  Level KMEM
09:22AM 35.2911 -89.1361 79° East 130 150 3,500  Climbing Memphis Center
09:23AM 35.3033 -89.1003 67° East 120 138 3,500  Level Memphis Center
09:24AM 35.3175 -89.0644 64° Northeast 114 131 3,500  Level Memphis Center
09:25AM 35.3319 -89.0286 64° Northeast 114 131 3,500  Level Memphis Center
09:26AM 35.3439 -88.9903 69° East 114 131 3,500  Level Memphis Center
09:27AM 35.3581 -88.9542 64° Northeast 114 131 3,500  Level Memphis Center
09:28AM 35.3681 -88.9158 72° East 109 125 3,500  Level Memphis Center
09:29AM 35.3803 -88.8800 67° East 109 125 3,500  Level Memphis Center
09:30AM 35.3944 -88.8467 62° Northeast 114 131 3,500  Level Memphis Center
09:31AM 35.4064 -88.8056 70° East 114 131 3,500  Level Memphis Center
09:32AM 35.4164 -88.7725 70° East 114 131 3,500  Level Memphis Center
09:33AM 35.4242 -88.7342 76° East 109 125 3,500  Level Memphis Center
09:34AM 35.4364 -88.6956 69° East 109 125 3,500  Level Memphis Center
09:35AM 35.4461 -88.6597 72° East 109 125 3,500  Level Memphis Center
09:36AM 35.4583 -88.6211 69° East 109 125 3,500  Level Memphis Center
09:37AM 35.4681 -88.5828 73° East 109 125 3,500  Level Memphis Center
09:38AM 35.4758 -88.5469 75° East 109 125 3,500  Level Memphis Center
09:39AM 35.4836 -88.5058 77° East 109 125 3,500  Level Memphis Center
09:40AM 35.4914 -88.4675 76° East 109 125 3,500  Level Memphis Center
09:41AM 35.4950 -88.4342 82° East 104 120 3,600  Climbing Memphis Center
09:42AM 35.5028 -88.3933 77° East 109 125 3,500 -60 Descending Memphis Center
09:43AM 35.5086 -88.3625 77° East 109 125 3,500 60 Level Memphis Center
09:44AM 35.5267 -88.3214 62° Northeast 109 125 3,700 120 Climbing Memphis Center
09:45AM 35.5386 -88.2853 68° East 114 131 3,800  Climbing Memphis Center
09:46AM 35.5525 -88.2517 63° Northeast 114 131 3,700 -60 Descending Memphis Center
09:47AM 35.5667 -88.2131 66° East 114 131 3,700  Level Memphis Center
09:48AM 35.5806 -88.1797 63° Northeast 114 131 3,700  Level Memphis Center
09:49AM 35.5906 -88.1511 67° East 109 125 3,700  Level Memphis Center
09:50AM 35.6022 -88.1153 68° East 104 120 3,700  Level Memphis Center
09:51AM 35.6122 -88.0817 70° East 109 125 3,700  Level Memphis Center
09:52AM 35.6261 -88.0481 63° Northeast 116 133 3,700  Level Memphis Center
09:53AM 35.6400 -88.0094 66° East 109 125 3,700  Level Memphis Center
09:54AM 35.6539 -87.9758 63° Northeast 109 125 3,700  Level Memphis Center
09:55AM 35.6658 -87.9372 69° East 109 125 3,700  Level Memphis Center
09:56AM 35.6778 -87.9061 65° Northeast 109 125 3,700  Level Memphis Center
09:57AM 35.6894 -87.8675 70° East 109 125 3,700  Level Memphis Center
09:58AM 35.7011 -87.8339 67° East 109 125 3,700  Level Memphis Center
09:59AM 35.7150 -87.7975 65° Northeast 114 131 3,700  Level Memphis Center
10:00AM 35.7289 -87.7614 65° Northeast 114 131 3,700  Level Memphis Center
10:01AM 35.7406 -87.7253 68° East 114 131 3,700  Level Memphis Center
10:02AM 35.7525 -87.6892 68° East 114 131 3,700  Level Memphis Center
10:03AM 35.7661 -87.6503 67° East 114 131 3,700  Level Memphis Center
10:04AM 35.7781 -87.6192 65° Northeast 114 131 3,700  Level Memphis Center
10:05AM 35.7897 -87.5856 67° East 114 131 3,700  Level Memphis Center
10:06AM 35.8036 -87.5492 65° Northeast 114 131 3,700  Level Memphis Center
10:07AM 35.8153 -87.5103 70° East 114 131 3,700  Level Memphis Center
10:08AM 35.8311 -87.4739 62° Northeast 114 131 3,700  Level Memphis Center
10:09AM 35.8428 -87.4403 67° East 114 131 3,700  Level Memphis Center
10:10AM 35.8564 -87.4039 65° Northeast 114 131 3,700  Level Memphis Center
10:11AM 35.8700 -87.3650 67° East 114 131 3,700  Level Memphis Center
10:12AM 35.8817 -87.3286 68° East 114 131 3,700  Level Memphis Center
10:13AM 35.8975 -87.2947 60° Northeast 114 131 3,700  Level Memphis Center
10:14AM 35.9175 -87.2608 54° Northeast 114 131 3,700  Level Memphis Center
10:15AM 35.9419 -87.2317 44° Northeast 114 131 3,700  Level Memphis Center
10:16AM 35.9619 -87.2028 49° Northeast 114 131 3,700  Level Memphis Center
10:17AM 35.9842 -87.1711 49° Northeast 120 138 3,700  Level Memphis Center
10:18AM 36.0064 -87.1419 47° Northeast 120 138 3,700 -60 Level Memphis Center
10:19AM 36.0306 -87.1128 44° Northeast 120 138 3,600 -120 Descending Memphis Center
10:20AM 36.0486 -87.0889 47° Northeast 120 138 3,500  Descending Memphis Center
10:22AM 36.1000 -87.0167 49° Northeast 115 132 3,700  Climbing Nashville TRACON
10:23AM 36.1167 -86.9833 58° Northeast 114 131 3,500 -300 Descending Nashville TRACON
10:24AM 36.1500 -86.9500 39° Northeast 125 144 3,100 -240 Descending Nashville TRACON
10:25AM 36.1667 -86.9333 39° Northeast 106 122 3,000 -60 Descending Nashville TRACON
10:27AM 36.1833 -86.9000 58° Northeast 94 108 3,000  Level Nashville TRACON
10:27AM 36.1833 -86.8667 90° East 96 110 3,000  Level Nashville TRACON
10:28AM 36.1833 -86.8333 90° East 101 116 3,000 -60 Level Nashville TRACON
10:29AM 36.2000 -86.8000 58° Northeast 103 119 2,900 -360 Descending Nashville TRACON
10:30AM 36.2000 -86.7667 90° East 97 112 2,300 -480 Descending Nashville TRACON
10:31AM 36.1833 -86.7500 141° Southeast 67 77 2,000 -300 Descending Nashville TRACON
10:32AM 36.1667 -86.7333 141° Southeast 62 71 1,800 -300 Descending Nashville TRACON
10:33AM 36.1667 -86.7167 90° East 62 71 1,500 -420 Descending Nashville TRACON
10:34AM 36.1500 -86.7000 141° Southeast 66 76 1,100 -480 Descending Nashville TRACON
10:36AM 36.1245 -86.6782 73° East  Level Estimated
10:43AM 36.1245 -86.6782 73° East  Level Estimated
10:44AM 36.1245 -86.6782 73° East  Level Estimated
10:45AM 36.1245 -86.6782 73° East  Level Estimated